Latest Coastal Weather Observations for Townsville

IDQ60701

Issued at 3:12 pm EST Wednesday 22 September 2021 (issued every 10 minutes, with the page automatically refreshed every 10 minutes)

About coastal observations | Map of coastal stations | Coastal observations for QLD | Marine services | Other Formats
Station Details ID: 032040 Name: TOWNSVILLE AERO Lat: -19.25 Lon: 146.77 Height: 4.34 m
Data from the previous 72 hours. | See also: Recent months at Townsville
Date/Time
EST
Wind Sea
Height
m
Swell Vis
km
Cloud Weather Temp
°C
Press
MSL
hPa
Rain since
9am
mm
Dir  Spd
kts
Gust
kts
Height
m
Period
s
Dir
22/03:00pm ENE 18 23 - - - - 10 Clear - 22.7 1016.9 0.0
22/02:30pm ENE 16 20 - - - - 10 - - 23.9 1016.8 0.0
22/02:00pm ENE 15 18 - - - - 10 - - 24.6 1017.2 0.0
22/01:30pm NE 13 17 - - - - 10 - - 24.0 1017.8 0.0
22/01:00pm NE 13 18 - - - - 10 - - 22.9 1018.2 0.0
22/12:30pm ENE 9 14 - - - - 10 - - 23.8 1018.7 0.0
22/12:00pm SE 9 16 - - - - 10 - - 22.9 1019.1 0.0
22/11:30am SSE 8 17 - - - - 10 - - 24.2 1019.5 0.0
22/11:00am SE 9 15 - - - - 10 - - 22.8 1020.0 0.0
22/10:30am SSE 12 17 - - - - 10 - - 22.2 1020.3 0.0
22/10:00am SSE 13 18 - - - - 10 - - 22.1 1020.4 0.0
22/09:30am SSW 13 19 - - - - 10 - - 20.6 1020.6 0.0
22/09:00am SSW 12 16 - - - - 10 - - 19.9 1020.6 0.0
22/08:30am S 14 19 - - - - 10 - - 19.3 1020.3 0.0
22/08:00am S 13 17 - - - - 10 - - 19.0 1020.0 0.0
22/07:30am S 16 21 - - - - 10 - - 18.4 1019.7 0.0
22/07:00am SSW 13 18 - - - - 10 - - 18.1 1019.1 0.0
22/06:30am SSW 10 16 - - - - 10 - - 17.7 1018.7 0.0
22/06:00am SSW 12 17 - - - - 10 - - 17.9 1018.3 0.0
22/05:30am S 15 19 - - - - 10 - - 18.4 1017.9 0.0
22/05:00am S 15 19 - - - - 10 - - 18.8 1017.5 0.0
22/04:30am SSW 14 18 - - - - 10 - - 19.2 1017.0 0.0
22/04:00am S 17 22 - - - - 10 - - 19.5 1016.6 0.0
22/03:30am S 17 26 - - - - 10 - - 20.0 1016.3 0.0
22/03:00am S 19 28 - - - - 10 - - 20.5 1016.3 0.0
22/02:32am S 18 28 - - - - 10 - - 20.8 1016.4 0.0
22/02:30am S 19 28 - - - - 10 - - 20.9 1016.4 0.0
22/02:00am S 17 24 - - - - 10 - - 21.4 1016.6 0.0
22/01:30am S 16 24 - - - - 10 - - 22.0 1016.7 0.0
22/01:00am S 17 25 - - - - 10 - - 22.9 1016.5 0.0
22/12:32am S 15 26 - - - - 10 - - 23.5 1016.6 0.0
22/12:30am S 15 19 - - - - 10 - - 23.2 1016.7 0.0
22/12:00am S 14 20 - - - - 10 - - 23.5 1016.7 0.0
 
Date/Time
EST
Wind Sea
Height
m
Swell Vis
km
Cloud Weather Temp
°C
Press
MSL
hPa
Rain since
9am
mm
Dir  Spd
kts
Gust
kts
Height
m
Period
s
Dir
21/11:30pm SSW 17 21 - - - - 10 - - 25.0 1016.4 0.0
21/11:13pm SSW 17 27 - - - - 10 - - 25.4 1016.4 0.0
21/11:00pm SSW 16 21 - - - - 10 - - 25.4 1016.3 0.0
21/10:30pm SSW 13 16 - - - - 10 - - 24.9 1016.1 0.0
21/10:00pm SSW 15 21 - - - - 10 - - 26.2 1015.9 0.0
21/09:30pm SSW 12 16 - - - - 10 - - 26.1 1015.4 0.0
21/09:00pm SSW 13 16 - - - - 10 - - 26.4 1015.1 0.0
21/08:30pm SW 8 13 - - - - 10 - - 24.6 1014.7 0.0
21/08:00pm WNW 5 6 - - - - 10 - - 21.5 1014.1 0.0
21/07:30pm W 1 5 - - - - 10 - - 22.4 1013.5 0.0
21/07:00pm WNW 7 8 - - - - 10 - - 22.9 1012.9 0.0
21/06:30pm WNW 5 7 - - - - 10 - - 24.4 1012.4 0.0
21/06:23pm W 6 10 - - - - 10 - - 25.8 1012.2 0.0
21/06:00pm SSW 12 17 - - - - 10 - - 30.9 1011.8 0.0
21/05:30pm SSW 13 17 - - - - 10 - - 32.2 1011.3 0.0
21/05:00pm SSW 17 21 - - - - 10 - - 32.8 1011.1 0.0
21/04:30pm SSW 15 23 - - - - 10 - - 33.4 1011.0 0.0
21/04:00pm SW 14 19 - - - - 10 - - 33.9 1011.1 0.0
21/03:30pm SSW 17 22 - - - - 10 - - 33.4 1011.1 0.0
21/03:00pm SSW 12 18 - - - - 10 - - 33.4 1011.4 0.0
21/02:30pm S 14 18 - - - - 10 - - 34.4 1011.6 0.0
21/02:00pm SSW 13 19 - - - - 10 - - 34.2 1011.6 0.0
21/01:30pm SSW 14 21 - - - - 10 - - 33.5 1012.2 0.0
21/01:00pm SW 16 20 - - - - 10 - - 33.2 1012.7 0.0
21/12:30pm S 14 22 - - - - 10 - - 32.9 1013.2 0.0
21/12:00pm S 13 19 - - - - 10 - - 32.3 1013.9 0.0
21/11:30am S 13 18 - - - - 10 - - 31.5 1014.7 0.0
21/11:00am S 13 19 - - - - 10 - - 30.5 1015.3 0.0
21/10:30am S 13 18 - - - - 10 - - 29.7 1015.6 0.0
21/10:00am SW 6 10 - - - - 10 - - 27.3 1016.2 0.0
21/09:30am WSW 5 7 - - - - 10 - - 26.0 1016.5 0.0
21/09:00am SW 5 9 - - - - 10 - - 24.8 1016.7 0.0
21/08:30am SW 6 9 - - - - 10 - - 23.9 1016.7 0.0
21/08:00am SW 2 5 - - - - 10 - - 22.8 1016.5 0.0
21/07:30am N 1 5 - - - - 10 Mostly clear - 20.8 1016.0 0.0
21/07:00am NNE 2 4 - - - - 10 Mostly clear - 19.1 1016.0 0.0
21/06:30am SSW 6 7 - - - - 10 Mostly clear - 19.3 1016.1 0.0
21/06:00am SW 9 14 - - - - 10 Mostly clear - 19.1 1016.4 0.0
21/05:30am WNW 3 4 - - - - 10 - - 16.1 1015.3 0.0
21/05:00am WNW 1 4 - - - - 10 - - 16.7 1014.7 0.0
21/04:30am CALM 0 0 - - - - 10 - - 16.9 1014.7 0.0
21/04:00am CALM 0 0 - - - - 10 - - 17.1 1014.6 0.0
21/03:30am CALM 0 0 - - - - 10 - - 16.9 1014.8 0.0
21/03:00am CALM 0 0 - - - - 10 - - 17.3 1015.2 0.0
21/02:30am WNW 2 3 - - - - 10 - - 17.7 1015.5 0.0
21/02:00am WNW 4 5 - - - - 10 - - 17.6 1015.9 0.0
21/01:30am WNW 5 5 - - - - 10 - - 18.2 1016.1 0.0
21/01:00am S 3 4 - - - - 10 - - 18.5 1016.8 0.0
21/12:30am S 1 3 - - - - 10 Partly cloudy - 20.2 1017.2 0.0
21/12:00am S 4 4 - - - - 10 Cloudy - 21.2 1017.7 0.0
 
Date/Time
EST
Wind Sea
Height
m
Swell Vis
km
Cloud Weather Temp
°C
Press
MSL
hPa
Rain since
9am
mm
Dir  Spd
kts
Gust
kts
Height
m
Period
s
Dir
20/11:30pm S 5 5 - - - - 10 Partly cloudy - 20.6 1018.0 0.0
20/11:00pm S 5 5 - - - - 10 Partly cloudy - 21.0 1018.0 0.0
20/10:30pm CALM 0 1 - - - - 10 Partly cloudy - 20.9 1017.9 0.0
20/10:00pm SE 1 4 - - - - 10 Partly cloudy - 21.3 1017.9 0.0
20/09:30pm ESE 4 6 - - - - 10 Partly cloudy - 21.4 1017.8 0.0
20/09:00pm E 5 7 - - - - 10 - - 21.5 1017.9 0.0
20/08:30pm E 6 8 - - - - 10 - - 22.0 1017.8 0.0
20/08:00pm ENE 8 9 - - - - 10 - - 22.0 1017.3 0.0
20/07:30pm E 8 10 - - - - 10 - - 22.5 1016.9 0.0
20/07:00pm ENE 9 12 - - - - 10 - - 22.5 1016.5 0.0
20/06:30pm ENE 9 13 - - - - 10 - - 22.9 1016.3 0.0
20/06:00pm ENE 10 14 - - - - 10 - - 23.3 1016.0 0.0
20/05:30pm ENE 13 16 - - - - 10 - - 24.1 1015.5 0.0
20/05:00pm NE 13 16 - - - - 10 - - 24.8 1015.4 0.0
20/04:30pm NE 14 17 - - - - 10 - - 25.3 1015.3 0.0
20/04:00pm ENE 14 18 - - - - 10 - - 25.9 1015.5 0.0
20/03:30pm ENE 14 18 - - - - 10 - - 26.5 1015.6 0.0
20/03:00pm ENE 15 18 - - - - 10 Mostly clear - 26.1 1016.1 0.0
20/02:30pm NE 15 18 - - - - 10 Mostly clear - 26.5 1016.5 0.0
20/02:00pm NE 15 18 - - - - 10 Mostly clear - 27.4 1016.9 0.0
20/01:30pm NE 15 19 - - - - 10 Mostly clear - 26.4 1017.1 0.0
20/01:00pm ENE 14 18 - - - - 10 Mostly clear - 27.6 1017.5 0.0
20/12:30pm NE 13 19 - - - - 10 Partly cloudy - 27.2 1018.0 0.0
20/12:00pm ESE 10 16 - - - - 10 Mostly clear - 27.3 1018.5 0.0
20/11:30am E 9 17 - - - - 10 Partly cloudy - 27.1 1019.2 0.0
20/11:00am SE 10 16 - - - - 10 Mostly clear - 26.2 1019.6 0.0
20/10:30am ESE 15 19 - - - - 10 Mostly clear - 25.5 1019.8 0.0
20/10:00am ENE 13 17 - - - - 10 Mostly clear - 25.3 1019.9 0.0
20/09:30am SSE 7 10 - - - - 10 Mostly clear - 24.9 1019.8 0.0
20/09:00am ESE 8 12 - - - - 10 Mostly cloudy - 24.0 1019.9 0.0
20/08:30am SSE 6 9 - - - - 10 Mostly clear - 23.4 1019.8 0.0
20/08:00am SE 2 6 - - - - 10 Mostly clear - 21.4 1019.6 0.0
20/07:30am NE 4 6 - - - - 10 Mostly clear - 21.3 1019.3 0.0
20/07:00am WNW 5 6 - - - - 10 Partly cloudy - 19.0 1018.7 0.0
20/06:30am SW 3 4 - - - - 10 Mostly cloudy - 18.1 1018.5 0.0
20/06:00am CALM 0 0 - - - - 10 Mostly cloudy - 18.1 1018.5 0.0
20/05:30am SW 2 5 - - - - 10 Cloudy - 18.3 1018.2 0.0
20/05:00am SSW 4 5 - - - - 10 Cloudy - 19.8 1018.2 0.0
20/04:30am WNW 3 4 - - - - 10 Cloudy - 17.8 1018.0 0.0
20/04:00am CALM 0 0 - - - - 10 Cloudy - 18.5 1018.1 0.0
20/03:30am SE 5 7 - - - - 10 Partly cloudy - 20.1 1018.1 0.0
20/03:00am SE 7 8 - - - - 10 Partly cloudy - 19.5 1018.3 0.0
20/02:30am SE 7 8 - - - - 10 Partly cloudy - 19.6 1018.4 0.0
20/02:00am SE 6 7 - - - - 10 Partly cloudy - 20.2 1018.7 0.0
20/01:30am SSE 7 8 - - - - 10 Partly cloudy - 20.5 1018.8 0.0
20/01:00am SSE 5 7 - - - - 10 - - 19.4 1019.2 0.0
20/12:30am SSE 5 5 - - - - 10 - - 19.4 1019.5 0.0
20/12:00am SE 6 7 - - - - 10 - - 19.8 1020.0 0.0
 
Date/Time
EST
Wind Sea
Height
m
Swell Vis
km
Cloud Weather Temp
°C
Press
MSL
hPa
Rain since
9am
mm
Dir  Spd
kts
Gust
kts
Height
m
Period
s
Dir
19/11:30pm SSE 7 8 - - - - 10 Partly cloudy - 20.6 1020.3 0.0
19/11:00pm SSE 7 8 - - - - 10 - - 20.7 1020.7 0.0
19/10:30pm SE 7 11 - - - - 10 Partly cloudy - 21.5 1020.8 0.0
19/10:00pm ESE 7 8 - - - - 10 Partly cloudy - 21.2 1020.9 0.0
19/09:30pm SSE 5 7 - - - - 10 - - 21.1 1020.6 0.0
19/09:00pm SSE 5 6 - - - - 10 - - 20.9 1020.4 0.0
19/08:30pm ESE 7 10 - - - - 10 - - 22.0 1020.2 0.0
19/08:00pm E 7 10 - - - - 10 - - 21.9 1019.8 0.0
19/07:30pm ESE 7 11 - - - - 10 - - 22.3 1019.4 0.0
19/07:00pm ESE 8 10 - - - - 10 - - 22.6 1018.9 0.0
19/06:30pm ENE 10 13 - - - - 10 - - 22.7 1018.6 0.0
19/06:00pm E 12 15 - - - - 10 - - 23.2 1018.4 0.0
19/05:30pm ENE 13 16 - - - - 10 - - 23.8 1018.1 0.0
19/05:00pm ENE 14 17 - - - - 10 - - 24.7 1018.0 0.0
19/04:30pm ENE 15 18 - - - - 10 - - 24.9 1018.0 0.0
19/04:00pm ENE 15 18 - - - - 10 - - 25.3 1017.8 0.0
19/03:30pm ENE 15 19 - - - - 10 - - 25.7 1018.0 0.0

Other formats

Comma delimited format used in spreadsheet applications
http://www.bom.gov.au/fwo/IDQ60701/IDQ60701.94294.axf

JavaScript Object Notation format (JSON) in row-major order
http://www.bom.gov.au/fwo/IDQ60701/IDQ60701.94294.json

Data quality

Most of these data are generated automatically and are frequently updated. Quality checks on data are not normally performed. It is possible for incorrect values to appear. Refer to information at About Latest Weather Observations and please check the disclaimer before using these data.